createdAt,value
2023-01-06T00:01:57.441Z,64.33
2023-01-06T00:02:57.472Z,64.65
2023-01-06T00:03:57.468Z,64.50
2023-01-06T00:04:57.553Z,64.50
2023-01-06T00:05:57.504Z,64.50
2023-01-06T00:06:57.562Z,64.50
2023-01-06T00:07:57.542Z,64.60
2023-01-06T00:09:57.549Z,64.80
2023-01-06T00:11:57.519Z,65.22
2023-01-06T00:12:57.517Z,65.74
2023-01-06T00:13:57.507Z,65.80
2023-01-06T00:14:57.523Z,65.80
2023-01-06T00:15:57.588Z,65.50
2023-01-06T00:17:57.546Z,65.60
2023-01-06T00:18:57.477Z,65.60
2023-01-06T00:19:57.488Z,65.45
2023-01-06T00:20:57.569Z,65.21
2023-01-06T00:21:57.537Z,65.21
2023-01-06T00:22:57.552Z,65.61
2023-01-06T00:23:57.528Z,65.61
2023-01-06T00:24:57.514Z,65.53
2023-01-06T00:25:57.581Z,65.85
2023-01-06T00:27:57.511Z,65.94
2023-01-06T00:28:57.630Z,66.00
2023-01-06T00:29:57.560Z,65.87
2023-01-06T00:30:57.630Z,65.79
2023-01-06T00:31:57.553Z,65.79
2023-01-06T00:32:57.552Z,65.63
2023-01-06T00:33:57.625Z,65.27
2023-01-06T00:34:57.538Z,65.27
2023-01-06T00:35:57.596Z,65.47
2023-01-06T00:36:57.532Z,65.57
2023-01-06T00:37:57.532Z,65.57
2023-01-06T00:38:57.690Z,65.39
2023-01-06T00:41:57.534Z,65.35
2023-01-06T00:43:57.583Z,65.13
2023-01-06T00:44:57.610Z,65.11
2023-01-06T00:45:57.591Z,65.12
2023-01-06T00:46:57.575Z,65.12
2023-01-06T00:47:57.571Z,65.38
2023-01-06T00:49:05.095Z,65.18
2023-01-06T00:49:57.568Z,65.42
2023-01-06T00:50:57.646Z,65.53
2023-01-06T00:51:57.568Z,65.53
2023-01-06T00:52:57.571Z,65.46
2023-01-06T00:55:57.666Z,65.25
2023-01-06T00:57:57.581Z,64.94
2023-01-06T00:58:57.680Z,64.96
2023-01-06T00:59:57.633Z,65.01
2023-01-06T01:00:57.632Z,64.87
2023-01-06T01:01:57.758Z,64.87
2023-01-06T01:03:57.625Z,64.84
2023-01-06T01:04:57.606Z,64.96
2023-01-06T01:05:57.641Z,65.06
2023-01-06T01:06:57.782Z,65.06
2023-01-06T01:10:57.644Z,64.88
2023-01-06T01:14:57.705Z,64.44
2023-01-06T01:15:57.750Z,64.57
2023-01-06T01:16:57.648Z,64.52
2023-01-06T01:17:57.628Z,64.52
2023-01-06T01:18:57.700Z,64.90
2023-01-06T01:19:57.691Z,64.86
2023-01-06T01:20:57.721Z,65.33
2023-01-06T01:22:57.678Z,65.41
2023-01-06T01:24:57.757Z,65.18
2023-01-06T01:25:57.691Z,64.84
2023-01-06T01:26:57.664Z,64.84
2023-01-06T01:27:57.642Z,64.73
2023-01-06T01:28:57.691Z,64.76
2023-01-06T01:29:57.703Z,64.76
2023-01-06T01:30:57.750Z,64.73
2023-01-06T01:31:57.726Z,64.77
2023-01-06T01:32:57.680Z,64.75
2023-01-06T01:33:57.756Z,64.80
2023-01-06T01:35:57.729Z,64.71
2023-01-06T01:36:57.807Z,64.71
2023-01-06T01:37:57.724Z,64.70
2023-01-06T01:41:57.769Z,64.77
2023-01-06T01:42:57.736Z,64.73
2023-01-06T01:43:57.738Z,64.66
2023-01-06T01:45:57.805Z,64.99
2023-01-06T01:48:57.757Z,64.51
2023-01-06T01:49:57.719Z,64.67
2023-01-06T01:50:57.705Z,64.67
2023-01-06T01:52:57.726Z,64.40
2023-01-06T01:55:57.788Z,64.40
2023-01-06T01:57:57.739Z,64.34
2023-01-06T01:58:57.793Z,64.64
2023-01-06T02:00:57.775Z,65.46
2023-01-06T02:01:57.888Z,65.22
2023-01-06T02:03:57.819Z,65.23
2023-01-06T02:04:57.792Z,65.23
2023-01-06T02:05:57.782Z,65.11
2023-01-06T02:07:57.817Z,64.98
2023-01-06T02:08:57.801Z,64.65
2023-01-06T02:09:57.769Z,64.65
2023-01-06T02:12:57.758Z,64.22
2023-01-06T02:13:57.766Z,64.40
2023-01-06T02:14:57.802Z,64.56
2023-01-06T02:15:57.788Z,64.56
2023-01-06T02:16:57.844Z,64.66
2023-01-06T02:17:57.816Z,65.16
2023-01-06T02:18:57.830Z,65.16
2023-01-06T02:19:57.815Z,65.87
2023-01-06T02:20:57.781Z,66.11
2023-01-06T02:21:57.850Z,66.32
2023-01-06T02:22:57.803Z,66.32
2023-01-06T02:23:57.818Z,66.90
2023-01-06T02:24:57.848Z,67.16
2023-01-06T02:25:57.803Z,67.14
2023-01-06T02:26:57.796Z,67.14
2023-01-06T02:27:57.802Z,67.10
2023-01-06T02:28:57.842Z,67.12
2023-01-06T02:29:57.851Z,67.12
2023-01-06T02:30:57.895Z,67.00
2023-01-06T02:31:57.848Z,66.72
2023-01-06T02:32:57.831Z,66.72
2023-01-06T02:33:57.808Z,66.61
2023-01-06T02:34:57.891Z,66.92
2023-01-06T02:35:57.829Z,66.92
2023-01-06T02:36:57.827Z,67.02
2023-01-06T02:37:57.841Z,68.07
2023-01-06T02:38:57.836Z,68.49
2023-01-06T02:39:57.908Z,69.12
2023-01-06T02:41:57.878Z,69.55
2023-01-06T02:42:57.889Z,69.30
2023-01-06T02:43:57.858Z,69.30
2023-01-06T02:44:57.915Z,69.89
2023-01-06T02:45:57.861Z,70.74
2023-01-06T02:47:57.936Z,71.22
2023-01-06T02:48:57.886Z,71.57
2023-01-06T02:49:57.929Z,71.68
2023-01-06T02:50:57.926Z,71.52
2023-01-06T02:51:57.862Z,71.79
2023-01-06T02:52:57.897Z,71.89
2023-01-06T02:53:57.867Z,71.56
2023-01-06T02:55:57.870Z,71.62
2023-01-06T02:56:57.921Z,71.62
2023-01-06T02:57:57.915Z,71.58
2023-01-06T02:58:57.919Z,71.18
2023-01-06T03:00:57.927Z,70.83
2023-01-06T03:01:58.127Z,70.83
2023-01-06T03:02:57.920Z,70.21
2023-01-06T03:03:57.897Z,70.04
2023-01-06T03:04:57.994Z,69.96
2023-01-06T03:05:57.949Z,69.96
2023-01-06T03:06:57.912Z,69.54
2023-01-06T03:07:57.971Z,69.47
2023-01-06T03:08:57.906Z,69.47
2023-01-06T03:09:57.971Z,69.35
2023-01-06T03:11:57.908Z,68.79
2023-01-06T03:13:57.921Z,69.16
2023-01-06T03:14:57.986Z,69.05
2023-01-06T03:15:57.975Z,69.05
2023-01-06T03:16:57.921Z,68.85
2023-01-06T03:17:57.990Z,68.84
2023-01-06T03:18:57.986Z,68.77
2023-01-06T03:19:58.022Z,68.78
2023-01-06T03:20:57.934Z,68.78
2023-01-06T03:22:57.978Z,68.18
2023-01-06T03:23:57.973Z,68.18
2023-01-06T03:24:58.051Z,68.27
2023-01-06T03:25:57.994Z,68.27
2023-01-06T03:26:57.990Z,68.06
2023-01-06T03:27:58.023Z,68.25
2023-01-06T03:28:57.986Z,68.25
2023-01-06T03:29:57.947Z,68.13
2023-01-06T03:30:58.043Z,68.21
2023-01-06T03:31:58.018Z,67.17
2023-01-06T03:32:58.042Z,67.02
2023-01-06T03:33:58.003Z,66.71
2023-01-06T03:35:58.009Z,66.81
2023-01-06T03:36:57.989Z,66.60
2023-01-06T03:37:58.016Z,66.67
2023-01-06T03:38:57.989Z,66.52
2023-01-06T03:39:58.038Z,66.69
2023-01-06T03:40:58.045Z,66.86
2023-01-06T03:41:58.046Z,66.86
2023-01-06T03:42:58.039Z,67.10
2023-01-06T03:43:58.003Z,67.10
2023-01-06T03:44:57.999Z,66.93
2023-01-06T03:45:58.080Z,66.78
2023-01-06T03:46:58.209Z,66.65
2023-01-06T03:47:58.015Z,66.65
2023-01-06T03:48:57.996Z,66.98
2023-01-06T03:49:58.052Z,67.53
2023-01-06T03:50:58.045Z,67.34
2023-01-06T03:51:58.054Z,67.34
2023-01-06T03:53:58.079Z,67.52
2023-01-06T03:54:58.056Z,67.52
2023-01-06T03:55:58.056Z,66.75
2023-01-06T03:56:58.016Z,66.75
2023-01-06T03:57:58.036Z,67.09
2023-01-06T03:58:58.113Z,67.09
2023-01-06T03:59:58.093Z,67.18
2023-01-06T04:00:58.098Z,67.18
2023-01-06T04:01:58.057Z,67.13
2023-01-06T04:02:58.065Z,67.00
2023-01-06T04:03:58.175Z,67.00
2023-01-06T04:04:58.045Z,66.91
2023-01-06T04:07:58.079Z,66.53
2023-01-06T04:09:58.057Z,66.79
2023-01-06T04:10:58.154Z,66.79
2023-01-06T04:11:58.106Z,66.79
2023-01-06T04:13:58.141Z,66.59
2023-01-06T04:17:58.100Z,66.46
2023-01-06T04:18:58.162Z,66.54
2023-01-06T04:19:58.090Z,66.54
2023-01-06T04:20:58.113Z,66.33
2023-01-06T04:21:58.090Z,66.71
2023-01-06T04:22:58.139Z,66.71
2023-01-06T04:23:58.140Z,66.80
2023-01-06T04:25:58.217Z,66.81
2023-01-06T04:26:58.107Z,66.81
2023-01-06T04:27:58.114Z,66.87
2023-01-06T04:28:58.133Z,67.50
2023-01-06T04:29:58.151Z,67.50
2023-01-06T04:30:58.149Z,67.75
2023-01-06T04:31:58.107Z,67.75
2023-01-06T04:32:58.112Z,67.89
2023-01-06T04:33:58.143Z,67.92
2023-01-06T04:34:58.127Z,67.92
2023-01-06T04:35:58.189Z,67.55
2023-01-06T04:36:58.139Z,67.33
2023-01-06T04:38:58.160Z,67.44
2023-01-06T04:40:58.209Z,67.79
2023-01-06T04:41:58.151Z,67.79
2023-01-06T04:42:58.185Z,67.83
2023-01-06T04:44:58.138Z,67.43
2023-01-06T04:45:58.246Z,67.34
2023-01-06T04:46:58.154Z,67.66
2023-01-06T04:47:58.160Z,68.03
2023-01-06T04:48:58.179Z,68.00
2023-01-06T04:49:58.193Z,68.11
2023-01-06T04:50:58.205Z,68.31
2023-01-06T04:51:58.196Z,68.62
2023-01-06T04:52:58.169Z,68.62
2023-01-06T04:53:58.247Z,68.67
2023-01-06T04:54:58.216Z,68.67
2023-01-06T04:55:58.218Z,69.12
2023-01-06T04:56:58.223Z,69.12
2023-01-06T04:57:58.189Z,69.12
2023-01-06T04:58:58.213Z,69.32
2023-01-06T04:59:58.180Z,69.26
2023-01-06T05:00:58.200Z,69.26
2023-01-06T05:01:58.254Z,69.31
2023-01-06T05:02:58.269Z,69.25
2023-01-06T05:03:58.296Z,69.17
2023-01-06T05:04:58.207Z,69.17
2023-01-06T05:05:58.195Z,69.05
2023-01-06T05:06:58.241Z,68.53
2023-01-06T05:07:58.180Z,68.53
2023-01-06T05:08:58.253Z,68.89
2023-01-06T05:09:58.214Z,68.92
2023-01-06T05:10:58.223Z,68.99
2023-01-06T05:11:58.254Z,68.89
2023-01-06T05:12:58.254Z,68.54
2023-01-06T05:13:58.263Z,68.46
2023-01-06T05:14:58.254Z,68.18
2023-01-06T05:15:58.253Z,68.18
2023-01-06T05:16:58.306Z,67.91
2023-01-06T05:17:58.267Z,67.91
2023-01-06T05:18:58.262Z,67.77
2023-01-06T05:19:58.252Z,67.21
2023-01-06T05:20:58.224Z,67.21
2023-01-06T05:21:58.316Z,66.92
2023-01-06T05:22:58.255Z,66.87
2023-01-06T05:23:58.281Z,66.78
2023-01-06T05:24:58.234Z,66.78
2023-01-06T05:25:58.269Z,66.44
2023-01-06T05:26:58.308Z,66.34
2023-01-06T05:27:58.235Z,66.34
2023-01-06T05:28:58.297Z,66.31
2023-01-06T05:29:58.313Z,66.32
2023-01-06T05:30:58.285Z,66.40
2023-01-06T05:31:58.371Z,66.28
2023-01-06T05:32:58.295Z,66.28
2023-01-06T05:33:58.305Z,66.38
2023-01-06T05:34:58.313Z,66.26
2023-01-06T05:35:58.310Z,66.26
2023-01-06T05:36:58.321Z,66.16
2023-01-06T05:37:58.268Z,66.16
2023-01-06T05:38:58.280Z,66.14
2023-01-06T05:39:58.319Z,65.98
2023-01-06T05:40:58.323Z,66.08
2023-01-06T05:41:58.284Z,66.08
2023-01-06T05:42:58.329Z,66.11
2023-01-06T05:43:58.341Z,66.08
2023-01-06T05:44:58.360Z,66.28
2023-01-06T05:45:58.408Z,66.28
2023-01-06T05:46:58.295Z,66.86
2023-01-06T05:47:58.342Z,66.94
2023-01-06T05:48:58.307Z,66.94
2023-01-06T05:49:58.334Z,67.18
2023-01-06T05:50:58.322Z,67.18
2023-01-06T05:51:58.333Z,67.33
2023-01-06T05:52:59.949Z,67.03
2023-01-06T05:53:58.355Z,66.97
2023-01-06T05:54:58.317Z,66.82
2023-01-06T05:55:58.352Z,66.82
2023-01-06T05:56:58.358Z,66.55
2023-01-06T05:57:58.387Z,66.51
2023-01-06T05:58:58.325Z,66.51
2023-01-06T05:59:58.317Z,66.44
2023-01-06T06:00:58.405Z,66.37
2023-01-06T06:01:58.436Z,66.26
2023-01-06T06:02:58.341Z,66.26
2023-01-06T06:03:58.440Z,66.02
2023-01-06T06:04:58.354Z,65.80
2023-01-06T06:05:58.403Z,65.68
2023-01-06T06:06:58.387Z,65.69
2023-01-06T06:07:58.359Z,65.56
2023-01-06T06:08:58.454Z,65.45
2023-01-06T06:09:58.402Z,65.35
2023-01-06T06:10:58.352Z,65.35
2023-01-06T06:11:58.392Z,65.56
2023-01-06T06:12:58.392Z,65.68
2023-01-06T06:13:58.425Z,65.33
2023-01-06T06:14:58.374Z,65.31
2023-01-06T06:15:58.410Z,65.42
2023-01-06T06:16:58.463Z,65.48
2023-01-06T06:17:58.388Z,65.48
2023-01-06T06:18:58.480Z,65.38
2023-01-06T06:22:58.423Z,65.23
2023-01-06T06:24:58.577Z,65.29
2023-01-06T06:26:58.431Z,65.34
2023-01-06T06:27:58.409Z,65.34
2023-01-06T06:28:58.416Z,65.24
2023-01-06T06:29:58.500Z,65.28
2023-01-06T06:30:58.457Z,65.16
2023-01-06T06:31:58.459Z,65.10
2023-01-06T06:32:58.453Z,65.01
2023-01-06T06:33:58.500Z,64.89
2023-01-06T06:34:58.454Z,65.20
2023-01-06T06:35:58.457Z,65.43
2023-01-06T06:36:58.456Z,65.43
2023-01-06T06:38:58.470Z,65.68
2023-01-06T06:39:58.497Z,65.68
2023-01-06T06:40:58.427Z,65.68
2023-01-06T06:41:58.444Z,66.07
2023-01-06T06:42:58.450Z,66.67
2023-01-06T06:43:58.429Z,67.08
2023-01-06T06:45:58.550Z,67.55
2023-01-06T06:46:58.510Z,67.78
2023-01-06T06:47:58.617Z,67.87
2023-01-06T06:48:58.462Z,67.82
2023-01-06T06:49:58.500Z,67.73
2023-01-06T06:50:58.511Z,67.73
2023-01-06T06:51:58.495Z,67.66
2023-01-06T06:52:58.462Z,68.44
2023-01-06T06:53:58.483Z,68.73
2023-01-06T06:54:58.529Z,68.84
2023-01-06T06:55:58.512Z,68.75
2023-01-06T06:56:58.521Z,68.57
2023-01-06T06:57:58.467Z,68.33
2023-01-06T06:58:58.475Z,67.70
2023-01-06T06:59:58.562Z,67.09
2023-01-06T07:00:58.565Z,66.86
2023-01-06T07:01:58.619Z,66.25
2023-01-06T07:02:58.510Z,65.78
2023-01-06T07:04:58.590Z,65.33
2023-01-06T07:06:58.515Z,65.23
2023-01-06T07:07:58.524Z,64.91
2023-01-06T07:08:58.488Z,65.19
2023-01-06T07:09:58.566Z,65.21
2023-01-06T07:10:58.500Z,65.21
2023-01-06T07:11:58.509Z,65.17
2023-01-06T07:12:58.675Z,65.22
2023-01-06T07:14:58.564Z,65.21
2023-01-06T07:15:58.655Z,64.97
2023-01-06T07:17:58.600Z,65.11
2023-01-06T07:18:58.540Z,65.12
2023-01-06T07:19:58.611Z,65.03
2023-01-06T07:20:58.569Z,65.03
2023-01-06T07:22:58.577Z,65.20
2023-01-06T07:24:58.555Z,64.96
2023-01-06T07:25:58.560Z,64.99
2023-01-06T07:26:58.591Z,65.28
2023-01-06T07:27:58.656Z,65.39
2023-01-06T07:28:58.563Z,65.39
2023-01-06T07:29:58.604Z,65.31
2023-01-06T07:30:58.736Z,65.40
2023-01-06T07:31:58.595Z,65.46
2023-01-06T07:32:58.643Z,65.91
2023-01-06T07:33:58.579Z,65.91
2023-01-06T07:34:58.623Z,66.41
2023-01-06T07:35:58.595Z,66.58
2023-01-06T07:36:58.602Z,66.58
2023-01-06T07:37:58.658Z,66.28
2023-01-06T07:38:58.585Z,66.06
2023-01-06T07:39:58.600Z,66.03
2023-01-06T07:40:58.652Z,65.75
2023-01-06T07:41:58.568Z,65.66
2023-01-06T07:42:58.680Z,65.53
2023-01-06T07:43:58.634Z,65.18
2023-01-06T07:44:58.632Z,65.09
2023-01-06T07:45:58.679Z,64.97
2023-01-06T07:46:58.590Z,64.97
2023-01-06T07:48:58.658Z,64.71
2023-01-06T07:49:58.622Z,64.71
2023-01-06T07:50:58.712Z,64.47
2023-01-06T07:51:58.633Z,64.47
2023-01-06T07:54:58.602Z,64.36
2023-01-06T07:55:58.695Z,64.30
2023-01-06T07:56:58.636Z,64.30
2023-01-06T07:57:58.754Z,64.32
2023-01-06T07:58:58.676Z,64.17
2023-01-06T07:59:58.616Z,64.17
2023-01-06T08:00:58.674Z,64.33
2023-01-06T08:02:58.688Z,64.30
2023-01-06T08:03:58.673Z,64.17
2023-01-06T08:05:00.268Z,64.17
2023-01-06T08:05:58.705Z,64.76
2023-01-06T08:06:58.686Z,65.15
2023-01-06T08:08:58.730Z,65.44
2023-01-06T08:09:58.630Z,65.44
2023-01-06T08:10:58.691Z,65.54
2023-01-06T08:11:58.656Z,65.47
2023-01-06T08:12:58.664Z,65.47
2023-01-06T08:13:58.756Z,65.54
2023-01-06T08:14:58.644Z,65.54
2023-01-06T08:15:58.729Z,65.31
2023-01-06T08:16:58.703Z,65.14
2023-01-06T08:17:58.709Z,65.14
2023-01-06T08:18:58.731Z,65.05
2023-01-06T08:19:58.689Z,65.05
2023-01-06T08:20:58.716Z,65.27
2023-01-06T08:21:58.681Z,65.27
2023-01-06T08:22:58.707Z,65.12
2023-01-06T08:23:58.735Z,64.46
2023-01-06T08:24:58.741Z,64.33
2023-01-06T08:25:58.725Z,64.63
2023-01-06T08:26:58.759Z,64.85
2023-01-06T08:27:58.733Z,64.91
2023-01-06T08:29:58.684Z,65.12
2023-01-06T08:30:58.805Z,65.27
2023-01-06T08:32:09.944Z,65.39
2023-01-06T08:32:58.696Z,65.39
2023-01-06T08:33:58.752Z,65.76
2023-01-06T08:34:58.718Z,65.76
2023-01-06T08:35:58.739Z,65.84
2023-01-06T08:36:58.743Z,65.96
2023-01-06T08:37:58.751Z,65.96
2023-01-06T08:38:58.724Z,65.67
2023-01-06T08:39:58.794Z,65.73
2023-01-06T08:40:58.756Z,65.79
2023-01-06T08:41:58.856Z,65.76
2023-01-06T08:42:58.764Z,65.68
2023-01-06T08:45:58.788Z,65.72
2023-01-06T08:47:58.801Z,65.87
2023-01-06T08:48:58.766Z,65.73
2023-01-06T08:49:58.817Z,65.57
2023-01-06T08:50:58.767Z,65.02
2023-01-06T08:51:58.780Z,65.79
2023-01-06T08:52:58.753Z,65.99
2023-01-06T08:53:58.837Z,65.99
2023-01-06T08:54:58.860Z,66.38
2023-01-06T08:55:58.769Z,66.48
2023-01-06T08:56:58.800Z,66.44
2023-01-06T08:58:58.788Z,66.55
2023-01-06T08:59:58.829Z,66.60
2023-01-06T09:00:58.787Z,66.27
2023-01-06T09:01:58.983Z,66.26
2023-01-06T09:02:58.783Z,66.26
2023-01-06T09:03:58.792Z,66.09
2023-01-06T09:04:58.892Z,65.91
2023-01-06T09:05:58.859Z,65.79
2023-01-06T09:06:58.830Z,65.75
2023-01-06T09:07:58.831Z,65.75
2023-01-06T09:08:58.780Z,65.43
2023-01-06T09:09:58.845Z,65.78
2023-01-06T09:10:58.833Z,66.06
2023-01-06T09:12:58.839Z,65.89
2023-01-06T09:13:58.836Z,66.03
2023-01-06T09:14:58.879Z,66.58
2023-01-06T09:15:58.834Z,66.58
2023-01-06T09:16:58.838Z,67.11
2023-01-06T09:17:58.902Z,67.30
2023-01-06T09:18:58.850Z,67.30
2023-01-06T09:19:58.868Z,67.78
2023-01-06T09:20:58.859Z,67.94
2023-01-06T09:22:00.281Z,67.63
2023-01-06T09:22:58.901Z,67.43
2023-01-06T09:23:58.859Z,67.43
2023-01-06T09:24:58.907Z,67.32
2023-01-06T09:25:58.823Z,67.32
2023-01-06T09:26:58.864Z,67.07
2023-01-06T09:27:58.886Z,67.10
2023-01-06T09:29:58.920Z,67.20
2023-01-06T09:30:58.917Z,67.20
2023-01-06T09:31:58.863Z,67.33
2023-01-06T09:32:58.905Z,67.55
2023-01-06T09:34:58.858Z,67.77
2023-01-06T09:35:58.882Z,67.90
2023-01-06T09:36:58.946Z,67.70
2023-01-06T09:37:58.905Z,67.92
2023-01-06T09:39:58.964Z,67.80
2023-01-06T09:40:58.928Z,67.69
2023-01-06T09:41:58.895Z,67.69
2023-01-06T09:42:58.953Z,67.69
2023-01-06T09:43:58.870Z,67.74
2023-01-06T09:44:58.889Z,67.74
2023-01-06T09:45:58.916Z,67.18
2023-01-06T09:46:58.934Z,67.40
2023-01-06T09:47:58.965Z,67.62
2023-01-06T09:48:58.902Z,67.62
2023-01-06T09:49:58.946Z,67.03
2023-01-06T09:50:58.954Z,67.14
2023-01-06T09:52:58.940Z,66.74
2023-01-06T09:53:58.932Z,66.86
2023-01-06T09:54:58.889Z,66.66
2023-01-06T09:55:58.953Z,66.55
2023-01-06T09:56:58.963Z,66.37
2023-01-06T09:57:59.072Z,66.37
2023-01-06T09:58:58.907Z,65.39
2023-01-06T09:59:58.929Z,65.28
2023-01-06T10:00:58.949Z,65.12
2023-01-06T10:01:59.096Z,65.12
2023-01-06T10:02:58.986Z,64.59
2023-01-06T10:03:58.983Z,64.53
2023-01-06T10:04:58.956Z,64.53
2023-01-06T10:05:59.022Z,64.42
2023-01-06T10:06:58.927Z,64.59
2023-01-06T10:07:59.040Z,64.42
2023-01-06T10:08:58.979Z,63.94
2023-01-06T10:09:58.942Z,64.11
2023-01-06T10:10:59.006Z,64.05
2023-01-06T10:11:58.988Z,63.79
2023-01-06T10:13:58.989Z,63.96
2023-01-06T10:14:58.954Z,63.96
2023-01-06T10:16:58.998Z,63.97
2023-01-06T10:17:58.995Z,64.12
2023-01-06T10:18:58.990Z,64.12
2023-01-06T10:19:58.983Z,64.35
2023-01-06T10:20:59.039Z,64.40
2023-01-06T10:21:58.974Z,64.21
2023-01-06T10:22:58.975Z,64.09
2023-01-06T10:23:59.004Z,63.44
2023-01-06T10:24:58.984Z,63.44
2023-01-06T10:25:59.032Z,63.60
2023-01-06T10:26:58.996Z,63.69
2023-01-06T10:27:59.021Z,63.43
2023-01-06T10:28:59.021Z,63.29
2023-01-06T10:29:58.990Z,63.29
2023-01-06T10:30:59.133Z,63.12
2023-01-06T10:31:59.031Z,63.08
2023-01-06T10:32:59.023Z,63.42
2023-01-06T10:33:58.994Z,63.42
2023-01-06T10:34:59.028Z,63.01
2023-01-06T10:35:59.050Z,63.01
2023-01-06T10:36:59.071Z,62.75
2023-01-06T10:37:59.070Z,62.73
2023-01-06T10:38:59.122Z,62.62
2023-01-06T10:39:59.025Z,62.62
2023-01-06T10:40:59.048Z,63.01
2023-01-06T10:41:59.018Z,63.01
2023-01-06T10:42:59.028Z,63.09
2023-01-06T10:44:59.023Z,62.95
2023-01-06T10:45:59.087Z,63.32
2023-01-06T10:46:59.057Z,63.32
2023-01-06T10:47:59.035Z,63.18
2023-01-06T10:48:59.078Z,63.23
2023-01-06T10:49:59.062Z,63.23
2023-01-06T10:50:59.089Z,63.50
2023-01-06T10:51:59.084Z,63.34
2023-01-06T10:52:59.081Z,63.43
2023-01-06T10:53:59.148Z,63.59
2023-01-06T10:54:59.052Z,64.11
2023-01-06T10:55:59.058Z,64.11
2023-01-06T10:56:59.112Z,64.43
2023-01-06T10:57:59.055Z,64.24
2023-01-06T10:58:59.106Z,64.04
2023-01-06T10:59:59.108Z,63.99
2023-01-06T11:00:59.129Z,63.49
2023-01-06T11:01:59.332Z,63.51
2023-01-06T11:03:14.263Z,63.51
2023-01-06T11:03:59.148Z,63.10
2023-01-06T11:04:59.120Z,62.94
2023-01-06T11:05:59.113Z,62.75
2023-01-06T11:06:59.121Z,62.56
2023-01-06T11:07:59.090Z,62.34
2023-01-06T11:08:59.127Z,62.51
2023-01-06T11:09:59.071Z,62.51
2023-01-06T11:10:59.079Z,62.50
2023-01-06T11:11:59.202Z,62.54
2023-01-06T11:12:59.128Z,62.54
2023-01-06T11:13:59.139Z,64.39
2023-01-06T11:14:59.134Z,63.61
2023-01-06T11:15:59.120Z,65.03
2023-01-06T11:16:59.196Z,64.09
2023-01-06T11:18:59.162Z,63.45
2023-01-06T11:19:59.172Z,62.81
2023-01-06T11:20:59.172Z,62.40
2023-01-06T11:21:59.164Z,62.93
2023-01-06T11:22:59.123Z,63.29
2023-01-06T11:23:59.141Z,63.49
2023-01-06T11:25:59.163Z,63.41
2023-01-06T11:26:59.196Z,63.50
2023-01-06T11:27:59.148Z,63.50
2023-01-06T11:28:59.156Z,62.98
2023-01-06T11:29:59.204Z,63.30
2023-01-06T11:30:59.138Z,63.35
2023-01-06T11:31:59.227Z,63.45
2023-01-06T11:32:59.183Z,63.45
2023-01-06T11:33:59.159Z,63.77
2023-01-06T11:34:59.235Z,63.95
2023-01-06T11:35:59.180Z,64.52
2023-01-06T11:36:59.210Z,64.79
2023-01-06T11:37:59.155Z,64.88
2023-01-06T11:38:59.159Z,64.88
2023-01-06T11:40:10.350Z,64.62
2023-01-06T11:40:59.205Z,64.31
2023-01-06T11:41:59.214Z,64.63
2023-01-06T11:42:59.207Z,64.79
2023-01-06T11:43:59.211Z,65.40
2023-01-06T11:44:59.206Z,65.57
2023-01-06T11:45:59.368Z,65.57
2023-01-06T11:46:59.219Z,65.84
2023-01-06T11:47:59.187Z,65.84
2023-01-06T11:48:59.197Z,65.56
2023-01-06T11:49:59.222Z,65.06
2023-01-06T11:50:59.232Z,64.88
2023-01-06T11:51:59.215Z,64.39
2023-01-06T11:52:59.253Z,64.39
2023-01-06T11:53:59.206Z,64.08
2023-01-06T11:54:59.237Z,63.72
2023-01-06T11:55:59.200Z,63.72
2023-01-06T11:56:59.202Z,63.58
2023-01-06T11:57:59.296Z,63.24
2023-01-06T11:58:59.235Z,63.24
2023-01-06T11:59:59.240Z,62.97
2023-01-06T12:00:59.229Z,62.52
2023-01-06T12:01:59.513Z,62.43
2023-01-06T12:02:59.237Z,62.43
2023-01-06T12:03:59.269Z,62.38
2023-01-06T12:04:59.289Z,62.00
2023-01-06T12:05:59.229Z,62.00
2023-01-06T12:07:00.287Z,62.29
2023-01-06T12:07:59.267Z,63.29
2023-01-06T12:08:59.251Z,63.29
2023-01-06T12:09:59.269Z,63.92
2023-01-06T12:10:59.248Z,63.92
2023-01-06T12:11:59.261Z,64.25
2023-01-06T12:12:59.279Z,65.01
2023-01-06T12:14:59.332Z,64.86
2023-01-06T12:15:59.255Z,64.80
2023-01-06T12:16:59.406Z,64.89
2023-01-06T12:17:59.324Z,65.16
2023-01-06T12:18:59.251Z,65.16
2023-01-06T12:19:59.331Z,65.42
2023-01-06T12:20:59.290Z,65.58
2023-01-06T12:21:59.269Z,65.50
2023-01-06T12:22:59.309Z,65.64
2023-01-06T12:23:59.297Z,65.64
2023-01-06T12:24:59.349Z,65.70
2023-01-06T12:25:59.320Z,65.89
2023-01-06T12:26:59.257Z,65.89
2023-01-06T12:27:59.353Z,65.85
2023-01-06T12:28:59.269Z,66.00
2023-01-06T12:29:59.330Z,65.94
2023-01-06T12:30:59.427Z,65.64
2023-01-06T12:31:59.355Z,65.73
2023-01-06T12:32:59.369Z,65.64
2023-01-06T12:33:59.329Z,65.64
2023-01-06T12:34:59.332Z,65.35
2023-01-06T12:35:59.283Z,65.24
2023-01-06T12:36:59.341Z,64.98
2023-01-06T12:37:59.395Z,64.92
2023-01-06T12:38:59.327Z,64.89
2023-01-06T12:39:59.327Z,64.89
2023-01-06T12:40:59.322Z,65.18
2023-01-06T12:41:59.304Z,65.18
2023-01-06T12:43:59.345Z,65.58
2023-01-06T12:44:59.356Z,65.58
2023-01-06T12:45:59.440Z,65.54
2023-01-06T12:46:59.372Z,65.50
2023-01-06T12:47:59.413Z,64.96
2023-01-06T12:48:59.371Z,64.96
2023-01-06T12:49:59.381Z,64.24
2023-01-06T12:50:59.344Z,64.24
2023-01-06T12:51:59.357Z,64.18
2023-01-06T12:53:01.268Z,64.70
2023-01-06T12:53:59.344Z,65.50
2023-01-06T12:54:59.380Z,65.80
2023-01-06T12:55:59.393Z,65.70
2023-01-06T12:56:59.374Z,65.70
2023-01-06T12:57:59.332Z,65.78
2023-01-06T12:58:59.380Z,65.42
2023-01-06T12:59:59.349Z,65.24
2023-01-06T13:01:59.509Z,64.91
2023-01-06T13:02:59.388Z,64.06
2023-01-06T13:03:59.490Z,63.50
2023-01-06T13:05:59.445Z,64.48
2023-01-06T13:06:59.404Z,64.52
2023-01-06T13:07:59.407Z,64.52
2023-01-06T13:08:59.448Z,63.56
2023-01-06T13:09:59.395Z,63.48
2023-01-06T13:10:59.432Z,62.85
2023-01-06T13:11:59.385Z,62.69
2023-01-06T13:12:59.430Z,62.35
2023-01-06T13:13:59.428Z,62.31
2023-01-06T13:14:59.472Z,62.25
2023-01-06T13:15:59.465Z,62.19
2023-01-06T13:16:59.527Z,61.85
2023-01-06T13:17:59.389Z,61.85
2023-01-06T13:18:59.452Z,61.68
2023-01-06T13:19:59.445Z,61.68
2023-01-06T13:20:59.437Z,61.96
2023-01-06T13:21:59.439Z,61.96
2023-01-06T13:22:59.425Z,62.96
2023-01-06T13:23:59.503Z,63.27
2023-01-06T13:24:59.448Z,63.27
2023-01-06T13:25:59.452Z,63.31
2023-01-06T13:26:59.500Z,62.61
2023-01-06T13:27:59.416Z,62.61
2023-01-06T13:28:59.486Z,62.25
2023-01-06T13:30:59.505Z,62.09
2023-01-06T13:31:59.546Z,62.34
2023-01-06T13:32:59.428Z,62.34
2023-01-06T13:33:59.512Z,61.94
2023-01-06T13:34:59.467Z,61.70
2023-01-06T13:35:59.438Z,60.99
2023-01-06T13:36:59.487Z,61.33
2023-01-06T13:37:59.494Z,61.33
2023-01-06T13:38:59.495Z,62.19
2023-01-06T13:40:59.527Z,62.39
2023-01-06T13:41:59.535Z,62.50
2023-01-06T13:42:59.504Z,62.44
2023-01-06T13:43:59.534Z,62.54
2023-01-06T13:44:59.453Z,62.54
2023-01-06T13:45:59.541Z,61.97
2023-01-06T13:47:01.326Z,63.04
2023-01-06T13:48:59.515Z,63.25
2023-01-06T13:49:59.514Z,63.25
2023-01-06T13:50:59.511Z,62.67
2023-01-06T13:51:59.526Z,62.79
2023-01-06T13:52:59.522Z,62.79
2023-01-06T13:53:59.538Z,62.58
2023-01-06T13:54:59.574Z,62.12
2023-01-06T13:55:59.514Z,61.66
2023-01-06T13:56:59.538Z,62.09
2023-01-06T13:57:59.500Z,62.09
2023-01-06T13:58:59.525Z,62.03
2023-01-06T13:59:59.603Z,61.36
2023-01-06T14:00:59.560Z,61.36
2023-01-06T14:01:59.887Z,61.38
2023-01-06T14:02:59.573Z,61.47
2023-01-06T14:03:59.516Z,61.68
2023-01-06T14:04:59.599Z,61.59
2023-01-06T14:05:59.622Z,61.29
2023-01-06T14:06:59.575Z,61.46
2023-01-06T14:07:59.557Z,61.39
2023-01-06T14:08:59.534Z,61.45
2023-01-06T14:09:59.601Z,61.35
2023-01-06T14:10:59.541Z,61.40
2023-01-06T14:11:59.598Z,60.84
2023-01-06T14:12:59.585Z,60.94
2023-01-06T14:13:59.726Z,60.95
2023-01-06T14:14:59.572Z,61.22
2023-01-06T14:15:59.637Z,61.52
2023-01-06T14:16:59.681Z,62.39
2023-01-06T14:17:59.583Z,62.39
2023-01-06T14:18:59.575Z,62.97
2023-01-06T14:19:59.621Z,62.60
2023-01-06T14:20:59.541Z,62.72
2023-01-06T14:21:59.597Z,62.88
2023-01-06T14:22:59.626Z,62.88
2023-01-06T14:23:59.595Z,63.34
2023-01-06T14:24:59.632Z,63.46
2023-01-06T14:25:59.593Z,63.40
2023-01-06T14:26:59.608Z,63.40
2023-01-06T14:27:59.602Z,64.23
2023-01-06T14:28:59.631Z,64.36